SPQT

Coronel FAP Francisco Secada Vignetta International Airport

Iquitos, Peru
TAF SPQT 212300Z 2200/2224 25004KT 9999 FEW020 SCT100 TX31/2220Z TN24/2211Z TEMPO 2208/2212 5000 RADZ BKN005 BKN080 BECMG 2213/2216 BKN015 BKN100 TEMPO 2219/2223 06012KT 4000 SHRA BKN010 FEW020TCU BKN080 BECMG 2223/2224 CAVOK
Issued Valid From Valid To
Jan-21 @ 23:00 UTC
(2 hours ago)
Jan-22 @ 00:00 UTC
(31 minutes ago)
Jan-23 @ 00:00 UTC
(in 23 hours)
Jan-22 @ 00:00 to Jan-22 @ 13:00
TAF SPQT 212300Z 2200/2224 25004KT 9999 FEW020 SCT100 TX31/2220Z TN24/2211Z
Wind Visibility Clouds
250° at 4 knots 10,000+ meters
  • Few at 2,000' AGL
  • Scattered at 10,000' AGL
Temporary Jan-22 @ 08:00 to Jan-22 @ 12:00
TEMPO 2208/2212 5000 RADZ BKN005 BKN080
Visibility Clouds Conditions
5,005 meters
  • Broken at 500' AGL
  • Broken at 8,000' AGL
  • Rain
  • Drizzle
Becoming Jan-22 @ 13:00 to Jan-22 @ 23:00
BECMG 2213/2216 BKN015 BKN100
Wind Visibility Clouds
250° at 4 knots 10,000+ meters
  • Broken at 1,500' AGL
  • Broken at 10,000' AGL
Temporary Jan-22 @ 19:00 to Jan-22 @ 23:00
TEMPO 2219/2223 06012KT 4000 SHRA BKN010 FEW020TCU BKN080
Wind Visibility Clouds Conditions
60° at 12 knots 4,007 meters
  • Broken at 1,000' AGL
  • Few at 2,000' AGL
  • Broken at 8,000' AGL
  • Rain
Becoming Jan-22 @ 23:00 to Jan-23 @ 00:00
BECMG 2223/2224 CAVOK
Wind Visibility Clouds Conditions
250° at 4 knots 10,000+ meters
  • No significant clouds
TAF SPQT 212300Z 2200/2224 25004KT 9999 FEW020 SCT100 TX31/2220Z TN24/2211Z TEMPO 2208/2212 5000 RADZ BKN005 BKN080 BECMG 2213/2216 BKN015 BKN100 TEMPO 2219/2223 06012KT 4000 SHRA BKN010 FEW020TCU BKN080 BECMG 2223/2224 CAVOK
Issued Jan-21 @ 23:00 UTC
(2 hours ago)
Valid From Jan-22 @ 00:00 UTC
(31 minutes ago)
Valid To Jan-23 @ 00:00 UTC
(in 23 hours)
Jan-22 @ 00:00 - Jan-22 @ 13:00
Wind Visibility
250° at 4 knots 10,000+ meters
Clouds
  • Few at 2,000' AGL
  • Scattered at 10,000' AGL
Temporary Jan-22 @ 08:00 - Jan-22 @ 12:00
Clouds
  • Broken at 500' AGL
  • Broken at 8,000' AGL
Conditions
  • Rain
  • Drizzle
Becoming Jan-22 @ 13:00 - Jan-22 @ 23:00
Wind Visibility
250° at 4 knots 10,000+ meters
Clouds
  • Broken at 1,500' AGL
  • Broken at 10,000' AGL
Temporary Jan-22 @ 19:00 - Jan-22 @ 23:00
Wind Visibility
60° at 12 knots 4,007 meters
Clouds
  • Broken at 1,000' AGL
  • Few at 2,000' AGL
  • Broken at 8,000' AGL
Conditions
  • Rain
Becoming Jan-22 @ 23:00 - Jan-23 @ 00:00
Wind Visibility
250° at 4 knots 10,000+ meters
Clouds
  • No significant clouds
Conditions